Wetterdaten: Woche 19.03.12 - 25.03.12 (KW12)
Datum Zeit Temperatur Luftfeuchte Luftdruck Niederschlag Windrichtung Sonnenschein Solar Wind
19.03.2012 00:00 3,2 C 96 % 1021,7 hPa 0,6 l/m SW 0,00 h 0 W/m 4,8 km/h (1 Bft)
19.03.2012 01:00 3,2 C 96 % 1022,0 hPa 0,6 l/m SW 0,00 h 0 W/m 5,2 km/h (1 Bft)
19.03.2012 02:00 3,2 C 97 % 1022,0 hPa 0,8 l/m S-SW 0,00 h 0 W/m 4,3 km/h (1 Bft)
19.03.2012 03:00 3,1 C 98 % 1022,2 hPa 1,0 l/m S-SW 0,00 h 0 W/m 4,1 km/h (1 Bft)
19.03.2012 04:00 2,8 C 97 % 1022,5 hPa 1,6 l/m N 0,00 h 0 W/m 1,9 km/h (1 Bft)
19.03.2012 05:00 2,5 C 96 % 1023,0 hPa 1,4 l/m N 0,00 h 0 W/m 1,7 km/h (1 Bft)
19.03.2012 06:00 2,1 C 96 % 1023,4 hPa 0,8 l/m N 0,00 h 5 W/m 1,1 km/h (0 Bft)
19.03.2012 07:00 2,0 C 96 % 1024,1 hPa 0,8 l/m N 0,00 h 17 W/m 0,7 km/h (0 Bft)
19.03.2012 08:00 2,4 C 97 % 1024,6 hPa 0,4 l/m N 0,00 h 61 W/m 0,3 km/h (0 Bft)
19.03.2012 09:00 3,2 C 95 % 1025,3 hPa 0,0 l/m SW 0,00 h 78 W/m 2,1 km/h (1 Bft)
19.03.2012 10:00 4,0 C 95 % 1025,9 hPa 0,0 l/m N 0,00 h 66 W/m 2,3 km/h (1 Bft)
19.03.2012 11:00 4,4 C 95 % 1026,4 hPa 0,0 l/m O 0,00 h 79 W/m 5,1 km/h (1 Bft)
19.03.2012 12:00 5,0 C 93 % 1027,0 hPa 0,0 l/m O 0,00 h 79 W/m 8,8 km/h (2 Bft)
19.03.2012 13:00 5,6 C 90 % 1027,3 hPa 0,0 l/m O-NO 0,00 h 139 W/m 9,4 km/h (2 Bft)
19.03.2012 14:00 6,3 C 85 % 1027,3 hPa 0,0 l/m O-NO 0,00 h 139 W/m 13,7 km/h (3 Bft)
19.03.2012 15:00 6,3 C 82 % 1027,6 hPa 0,0 l/m O-NO 0,00 h 60 W/m 13,0 km/h (3 Bft)
19.03.2012 16:00 6,0 C 86 % 1027,9 hPa 0,0 l/m O-NO 0,00 h 48 W/m 9,4 km/h (2 Bft)
19.03.2012 17:00 6,0 C 86 % 1028,3 hPa 0,0 l/m O-NO 0,00 h 23 W/m 9,4 km/h (2 Bft)
19.03.2012 18:00 5,8 C 86 % 1028,8 hPa 0,0 l/m O-NO 0,00 h 7 W/m 5,5 km/h (1 Bft)
19.03.2012 19:00 5,3 C 90 % 1029,6 hPa 0,0 l/m N 0,00 h 0 W/m 2,8 km/h (1 Bft)
19.03.2012 20:00 5,2 C 91 % 1030,2 hPa 0,0 l/m N-NO 0,00 h 0 W/m 6,2 km/h (2 Bft)
19.03.2012 21:00 5,2 C 91 % 1030,8 hPa 0,0 l/m NO 0,00 h 0 W/m 4,1 km/h (1 Bft)
19.03.2012 22:00 4,9 C 92 % 1031,3 hPa 0,0 l/m N-NO 0,00 h 0 W/m 6,0 km/h (2 Bft)
19.03.2012 23:00 4,6 C 92 % 1031,8 hPa 0,0 l/m N-NO 0,00 h 0 W/m 5,1 km/h (1 Bft)
20.03.2012 00:00 4,4 C 91 % 1032,1 hPa 0,0 l/m N-NO 0,00 h 0 W/m 6,1 km/h (2 Bft)
20.03.2012 01:00 4,1 C 90 % 1032,1 hPa 0,0 l/m N-NO 0,00 h 0 W/m 5,5 km/h (1 Bft)
20.03.2012 02:00 3,8 C 89 % 1031,9 hPa 0,0 l/m NO 0,00 h 0 W/m 6,0 km/h (2 Bft)
20.03.2012 03:00 3,7 C 87 % 1031,8 hPa 0,0 l/m NO 0,00 h 0 W/m 5,7 km/h (1 Bft)
20.03.2012 04:00 3,2 C 86 % 1031,7 hPa 0,0 l/m NO 0,00 h 0 W/m 6,6 km/h (2 Bft)
20.03.2012 05:00 2,5 C 86 % 1031,9 hPa 0,0 l/m N-NO 0,00 h 0 W/m 5,5 km/h (1 Bft)
20.03.2012 06:00 1,7 C 88 % 1032,3 hPa 0,0 l/m N 0,00 h 10 W/m 4,0 km/h (1 Bft)
20.03.2012 07:00 1,7 C 90 % 1032,6 hPa 0,0 l/m N 0,00 h 54 W/m 3,7 km/h (1 Bft)
20.03.2012 08:00 3,5 C 85 % 1033,1 hPa 0,0 l/m NO 0,83 h 256 W/m 7,5 km/h (2 Bft)
20.03.2012 09:00 6,1 C 77 % 1033,4 hPa 0,0 l/m O-NO 1,00 h 430 W/m 10,7 km/h (2 Bft)
20.03.2012 10:00 8,4 C 65 % 1033,6 hPa 0,0 l/m O-SO 1,00 h 558 W/m 15,0 km/h (3 Bft)
20.03.2012 11:00 9,9 C 61 % 1033,3 hPa 0,0 l/m O-NO 1,00 h 676 W/m 16,4 km/h (3 Bft)
20.03.2012 12:00 11,0 C 59 % 1033,0 hPa 0,0 l/m O-SO 1,00 h 747 W/m 15,0 km/h (3 Bft)
20.03.2012 13:00 11,8 C 55 % 1032,7 hPa 0,0 l/m O 1,00 h 714 W/m 14,2 km/h (3 Bft)
20.03.2012 14:00 12,0 C 54 % 1032,4 hPa 0,0 l/m O 0,75 h 558 W/m 12,1 km/h (2 Bft)
20.03.2012 15:00 12,7 C 51 % 1032,0 hPa 0,0 l/m NO 1,00 h 502 W/m 10,6 km/h (2 Bft)
20.03.2012 16:00 12,4 C 51 % 1031,8 hPa 0,0 l/m N-NO 1,00 h 318 W/m 8,8 km/h (2 Bft)
20.03.2012 17:00 11,8 C 51 % 1032,0 hPa 0,0 l/m O-NO 0,75 h 125 W/m 6,8 km/h (2 Bft)
20.03.2012 18:00 10,0 C 60 % 1032,4 hPa 0,0 l/m N 0,08 h 15 W/m 2,8 km/h (1 Bft)
20.03.2012 19:00 7,2 C 74 % 1032,8 hPa 0,0 l/m N 0,00 h 0 W/m 1,9 km/h (1 Bft)
20.03.2012 20:00 5,8 C 79 % 1033,3 hPa 0,0 l/m N 0,00 h 0 W/m 0,9 km/h (0 Bft)
20.03.2012 21:00 4,6 C 84 % 1033,5 hPa 0,0 l/m N 0,00 h 0 W/m 0,3 km/h (0 Bft)
20.03.2012 22:00 3,9 C 86 % 1033,6 hPa 0,0 l/m N 0,00 h 0 W/m 1,7 km/h (1 Bft)
20.03.2012 23:00 3,5 C 88 % 1033,6 hPa 0,0 l/m N 0,00 h 0 W/m 2,5 km/h (1 Bft)
21.03.2012 00:00 3,0 C 90 % 1033,5 hPa 0,0 l/m N 0,00 h 0 W/m 2,1 km/h (1 Bft)
21.03.2012 01:00 2,5 C 92 % 1033,2 hPa 0,0 l/m N 0,00 h 0 W/m 2,5 km/h (1 Bft)
21.03.2012 02:00 2,3 C 93 % 1032,8 hPa 0,0 l/m N-NO 0,00 h 0 W/m 4,3 km/h (1 Bft)
21.03.2012 03:00 2,0 C 94 % 1032,6 hPa 0,0 l/m N 0,00 h 0 W/m 3,9 km/h (1 Bft)
21.03.2012 04:00 1,6 C 95 % 1032,6 hPa 0,0 l/m N 0,00 h 0 W/m 4,3 km/h (1 Bft)
21.03.2012 05:00 1,4 C 95 % 1032,7 hPa 0,0 l/m N 0,00 h 0 W/m 4,9 km/h (1 Bft)
21.03.2012 06:00 1,4 C 95 % 1033,1 hPa 0,0 l/m N-NW 0,00 h 13 W/m 5,3 km/h (1 Bft)
21.03.2012 07:00 2,0 C 96 % 1033,4 hPa 0,0 l/m N-NW 0,25 h 75 W/m 6,0 km/h (2 Bft)
21.03.2012 08:00 4,0 C 92 % 1033,6 hPa 0,0 l/m N-NO 0,83 h 256 W/m 11,0 km/h (2 Bft)
21.03.2012 09:00 6,5 C 84 % 1033,7 hPa 0,0 l/m O-NO 1,00 h 425 W/m 11,3 km/h (2 Bft)
21.03.2012 10:00 9,3 C 73 % 1033,4 hPa 0,0 l/m O 1,00 h 548 W/m 17,7 km/h (3 Bft)
21.03.2012 11:00 11,2 C 66 % 1033,1 hPa 0,0 l/m O-NO 1,00 h 650 W/m 18,1 km/h (3 Bft)
21.03.2012 12:00 12,9 C 58 % 1032,9 hPa 0,0 l/m O 1,00 h 673 W/m 20,0 km/h (4 Bft)
21.03.2012 13:00 13,9 C 54 % 1032,3 hPa 0,0 l/m O-NO 1,00 h 682 W/m 20,5 km/h (4 Bft)
21.03.2012 14:00 14,7 C 48 % 1031,7 hPa 0,0 l/m O 1,00 h 605 W/m 18,9 km/h (3 Bft)
21.03.2012 15:00 14,9 C 49 % 1031,1 hPa 0,0 l/m O 1,00 h 483 W/m 18,5 km/h (3 Bft)
21.03.2012 16:00 14,4 C 51 % 1030,8 hPa 0,0 l/m O 1,00 h 324 W/m 17,2 km/h (3 Bft)
21.03.2012 17:00 13,7 C 54 % 1030,6 hPa 0,0 l/m NO 0,83 h 132 W/m 13,0 km/h (3 Bft)
21.03.2012 18:00 12,3 C 57 % 1030,6 hPa 0,0 l/m O-NO 0,08 h 15 W/m 8,4 km/h (2 Bft)
21.03.2012 19:00 10,0 C 63 % 1030,6 hPa 0,0 l/m O-NO 0,00 h 0 W/m 5,9 km/h (2 Bft)
21.03.2012 20:00 8,2 C 72 % 1030,6 hPa 0,0 l/m N-NO 0,00 h 0 W/m 5,2 km/h (1 Bft)
21.03.2012 21:00 7,4 C 76 % 1030,5 hPa 0,0 l/m N 0,00 h 0 W/m 7,2 km/h (2 Bft)
21.03.2012 22:00 6,8 C 78 % 1030,4 hPa 0,0 l/m N 0,00 h 0 W/m 8,3 km/h (2 Bft)
21.03.2012 23:00 6,1 C 80 % 1030,2 hPa 0,0 l/m N-NW 0,00 h 0 W/m 6,5 km/h (2 Bft)
22.03.2012 00:00 5,0 C 84 % 1029,9 hPa 0,0 l/m N 0,00 h 0 W/m 6,8 km/h (2 Bft)
22.03.2012 01:00 4,9 C 84 % 1029,6 hPa 0,0 l/m N 0,00 h 0 W/m 6,1 km/h (2 Bft)
22.03.2012 02:00 4,3 C 85 % 1029,4 hPa 0,0 l/m N 0,00 h 0 W/m 6,1 km/h (2 Bft)
22.03.2012 03:00 4,0 C 84 % 1029,0 hPa 0,0 l/m N 0,00 h 0 W/m 7,6 km/h (2 Bft)
22.03.2012 04:00 3,7 C 83 % 1028,8 hPa 0,0 l/m N 0,00 h 0 W/m 6,8 km/h (2 Bft)
22.03.2012 05:00 3,1 C 84 % 1028,5 hPa 0,0 l/m N 0,00 h 0 W/m 6,9 km/h (2 Bft)
22.03.2012 06:00 2,7 C 84 % 1028,5 hPa 0,0 l/m N 0,08 h 15 W/m 3,7 km/h (1 Bft)
22.03.2012 07:00 3,7 C 81 % 1028,6 hPa 0,0 l/m N-NO 0,33 h 99 W/m 5,9 km/h (2 Bft)
22.03.2012 08:00 5,8 C 76 % 1028,6 hPa 0,0 l/m NO 1,00 h 279 W/m 11,8 km/h (2 Bft)
22.03.2012 09:00 7,8 C 72 % 1028,4 hPa 0,0 l/m O-NO 1,00 h 443 W/m 9,9 km/h (2 Bft)
22.03.2012 10:00 10,3 C 66 % 1027,9 hPa 0,0 l/m NO 1,00 h 586 W/m 12,9 km/h (3 Bft)
22.03.2012 11:00 13,1 C 56 % 1027,2 hPa 0,0 l/m O-NO 1,00 h 682 W/m 17,3 km/h (3 Bft)
22.03.2012 12:00 14,6 C 50 % 1026,6 hPa 0,0 l/m O-NO 1,00 h 711 W/m 19,3 km/h (3 Bft)
22.03.2012 13:00 16,2 C 47 % 1025,9 hPa 0,0 l/m O 1,00 h 691 W/m 20,4 km/h (4 Bft)
22.03.2012 14:00 17,1 C 45 % 1025,3 hPa 0,0 l/m O-SO 1,00 h 614 W/m 18,6 km/h (3 Bft)
22.03.2012 15:00 17,1 C 45 % 1024,9 hPa 0,0 l/m O 1,00 h 492 W/m 20,5 km/h (4 Bft)
22.03.2012 16:00 16,7 C 48 % 1024,4 hPa 0,0 l/m O 1,00 h 332 W/m 19,2 km/h (3 Bft)
22.03.2012 17:00 15,7 C 51 % 1024,4 hPa 0,0 l/m O 0,83 h 137 W/m 17,0 km/h (3 Bft)
22.03.2012 18:00 13,9 C 57 % 1024,7 hPa 0,0 l/m O 0,08 h 15 W/m 7,5 km/h (2 Bft)
22.03.2012 19:00 11,9 C 66 % 1024,9 hPa 0,0 l/m O-NO 0,00 h 0 W/m 4,3 km/h (1 Bft)
22.03.2012 20:00 9,9 C 73 % 1024,9 hPa 0,0 l/m N 0,00 h 0 W/m 2,1 km/h (1 Bft)
22.03.2012 21:00 9,1 C 76 % 1024,9 hPa 0,0 l/m N 0,00 h 0 W/m 2,0 km/h (1 Bft)
22.03.2012 22:00 7,9 C 80 % 1024,9 hPa 0,0 l/m N 0,00 h 0 W/m 1,6 km/h (1 Bft)
22.03.2012 23:00 7,0 C 83 % 1024,8 hPa 0,0 l/m N 0,00 h 0 W/m 2,1 km/h (1 Bft)
23.03.2012 00:00 6,5 C 84 % 1024,7 hPa 0,0 l/m N-NW 0,00 h 0 W/m 4,5 km/h (1 Bft)
23.03.2012 01:00 6,0 C 86 % 1024,6 hPa 0,0 l/m N-NW 0,00 h 0 W/m 3,7 km/h (1 Bft)
23.03.2012 02:00 5,3 C 87 % 1024,3 hPa 0,0 l/m N 0,00 h 0 W/m 3,5 km/h (1 Bft)
23.03.2012 03:00 4,5 C 89 % 1024,0 hPa 0,0 l/m N-NW 0,00 h 0 W/m 2,9 km/h (1 Bft)
23.03.2012 04:00 3,7 C 92 % 1023,9 hPa 0,0 l/m N 0,00 h 0 W/m 1,9 km/h (1 Bft)
23.03.2012 05:00 3,1 C 94 % 1024,1 hPa 0,0 l/m N 0,00 h 0 W/m 2,5 km/h (1 Bft)
23.03.2012 06:00 2,5 C 95 % 1024,3 hPa 0,0 l/m N 0,00 h 16 W/m 0,0 km/h (0 Bft)
23.03.2012 07:00 3,3 C 95 % 1024,6 hPa 0,0 l/m N 0,17 h 94 W/m 1,1 km/h (0 Bft)
23.03.2012 08:00 6,2 C 91 % 1024,9 hPa 0,0 l/m N-NW 1,00 h 251 W/m 3,3 km/h (1 Bft)
23.03.2012 09:00 8,5 C 82 % 1024,9 hPa 0,0 l/m N-NW 1,00 h 415 W/m 4,1 km/h (1 Bft)
23.03.2012 10:00 10,9 C 75 % 1024,7 hPa 0,0 l/m O-NO 1,00 h 557 W/m 5,1 km/h (1 Bft)
23.03.2012 11:00 13,7 C 66 % 1024,2 hPa 0,0 l/m O-NO 1,00 h 642 W/m 5,9 km/h (2 Bft)
23.03.2012 12:00 15,2 C 60 % 1023,8 hPa 0,0 l/m NW 1,00 h 667 W/m 7,2 km/h (2 Bft)
23.03.2012 13:00 16,5 C 53 % 1023,3 hPa 0,0 l/m O-NO 1,00 h 647 W/m 8,3 km/h (2 Bft)
23.03.2012 14:00 17,1 C 48 % 1022,7 hPa 0,0 l/m NO 1,00 h 580 W/m 9,1 km/h (2 Bft)
23.03.2012 15:00 17,7 C 45 % 1022,2 hPa 0,0 l/m N 1,00 h 471 W/m 7,9 km/h (2 Bft)
23.03.2012 16:00 17,4 C 44 % 1021,9 hPa 0,0 l/m N 1,00 h 326 W/m 8,6 km/h (2 Bft)
23.03.2012 17:00 16,6 C 46 % 1021,9 hPa 0,0 l/m N-NO 0,83 h 130 W/m 7,6 km/h (2 Bft)
23.03.2012 18:00 14,2 C 57 % 1022,2 hPa 0,0 l/m NO 0,00 h 15 W/m 3,6 km/h (1 Bft)
23.03.2012 19:00 11,3 C 69 % 1022,5 hPa 0,0 l/m N 0,00 h 0 W/m 0,0 km/h (0 Bft)
23.03.2012 20:00 9,7 C 76 % 1023,0 hPa 0,0 l/m N 0,00 h 0 W/m 0,9 km/h (0 Bft)
23.03.2012 21:00 8,8 C 80 % 1023,2 hPa 0,0 l/m NO 0,00 h 0 W/m 2,4 km/h (1 Bft)
23.03.2012 22:00 8,0 C 82 % 1023,3 hPa 0,0 l/m N 0,00 h 0 W/m 1,3 km/h (1 Bft)
23.03.2012 23:00 7,4 C 85 % 1023,2 hPa 0,0 l/m N 0,00 h 0 W/m 2,4 km/h (1 Bft)
24.03.2012 00:00 7,1 C 86 % 1022,9 hPa 0,0 l/m NO 0,00 h 0 W/m 3,9 km/h (1 Bft)
24.03.2012 01:00 7,2 C 84 % 1022,7 hPa 0,0 l/m NO 0,00 h 0 W/m 5,6 km/h (1 Bft)
24.03.2012 02:00 5,9 C 85 % 1022,7 hPa 0,0 l/m NO 0,00 h 0 W/m 1,6 km/h (1 Bft)
24.03.2012 03:00 4,4 C 89 % 1022,7 hPa 0,0 l/m N 0,00 h 0 W/m 0,0 km/h (0 Bft)
24.03.2012 04:00 3,7 C 92 % 1022,8 hPa 0,0 l/m N 0,00 h 0 W/m 1,1 km/h (0 Bft)
24.03.2012 05:00 3,7 C 92 % 1022,9 hPa 0,0 l/m N 0,00 h 0 W/m 0,3 km/h (0 Bft)
24.03.2012 06:00 3,1 C 93 % 1023,2 hPa 0,0 l/m N 0,00 h 17 W/m 0,1 km/h (0 Bft)
24.03.2012 07:00 4,2 C 92 % 1023,5 hPa 0,0 l/m N 0,00 h 92 W/m 0,4 km/h (0 Bft)
24.03.2012 08:00 6,9 C 87 % 1023,8 hPa 0,0 l/m NO 1,00 h 235 W/m 4,1 km/h (1 Bft)
24.03.2012 09:00 9,2 C 80 % 1023,7 hPa 0,0 l/m NO 1,00 h 386 W/m 5,1 km/h (1 Bft)
24.03.2012 10:00 11,3 C 73 % 1023,7 hPa 0,0 l/m NO 0,50 h 386 W/m 6,1 km/h (2 Bft)
24.03.2012 11:00 13,9 C 65 % 1023,5 hPa 0,0 l/m N 1,00 h 586 W/m 7,8 km/h (2 Bft)
24.03.2012 12:00 15,2 C 57 % 1023,2 hPa 0,0 l/m O-NO 0,75 h 521 W/m 10,6 km/h (2 Bft)
24.03.2012 13:00 16,7 C 49 % 1022,7 hPa 0,0 l/m O-NO 0,92 h 605 W/m 11,7 km/h (2 Bft)
24.03.2012 14:00 16,6 C 45 % 1022,3 hPa 0,0 l/m NO 0,67 h 472 W/m 9,7 km/h (2 Bft)
24.03.2012 15:00 16,3 C 48 % 1022,3 hPa 0,0 l/m N 0,58 h 336 W/m 14,8 km/h (3 Bft)
24.03.2012 16:00 14,1 C 58 % 1022,6 hPa 0,0 l/m N-NO 0,67 h 189 W/m 22,4 km/h (4 Bft)
24.03.2012 17:00 14,1 C 53 % 1022,5 hPa 0,0 l/m NO 0,33 h 86 W/m 9,1 km/h (2 Bft)
24.03.2012 18:00 13,0 C 57 % 1023,1 hPa 0,0 l/m NO 0,00 h 14 W/m 4,0 km/h (1 Bft)
24.03.2012 19:00 11,0 C 67 % 1023,6 hPa 0,0 l/m N 0,00 h 0 W/m 0,1 km/h (0 Bft)
24.03.2012 20:00 9,0 C 75 % 1024,1 hPa 0,0 l/m N 0,00 h 0 W/m 1,3 km/h (1 Bft)
24.03.2012 21:00 7,8 C 80 % 1024,4 hPa 0,0 l/m N 0,00 h 0 W/m 0,7 km/h (0 Bft)
24.03.2012 22:00 6,7 C 84 % 1024,6 hPa 0,0 l/m N 0,00 h 0 W/m 0,0 km/h (0 Bft)
24.03.2012 23:00 6,0 C 88 % 1024,9 hPa 0,0 l/m N 0,00 h 0 W/m 1,3 km/h (1 Bft)
25.03.2012 00:00 5,2 C 90 % 1025,0 hPa 0,0 l/m N 0,00 h 0 W/m 0,7 km/h (0 Bft)
25.03.2012 01:00 4,7 C 92 % 1025,0 hPa 0,0 l/m N 0,00 h 0 W/m 0,5 km/h (0 Bft)
25.03.2012 03:00 3,9 C 93 % 1025,1 hPa 0,0 l/m N 0,00 h 0 W/m 0,0 km/h (0 Bft)
25.03.2012 04:00 3,6 C 94 % 1025,0 hPa 0,0 l/m N 0,00 h 0 W/m 0,5 km/h (0 Bft)
25.03.2012 05:00 2,9 C 94 % 1025,4 hPa 0,0 l/m N 0,00 h 0 W/m 0,0 km/h (0 Bft)
25.03.2012 06:00 2,8 C 96 % 1025,9 hPa 0,0 l/m N 0,00 h 0 W/m 1,6 km/h (1 Bft)
25.03.2012 07:00 2,9 C 96 % 1026,5 hPa 0,0 l/m N-NO 0,00 h 17 W/m 2,0 km/h (1 Bft)
25.03.2012 08:00 4,4 C 96 % 1026,9 hPa 0,0 l/m N-NW 0,08 h 97 W/m 7,6 km/h (2 Bft)
25.03.2012 09:00 6,9 C 90 % 1027,2 hPa 0,0 l/m N-NW 1,00 h 251 W/m 6,4 km/h (2 Bft)
25.03.2012 10:00 9,6 C 80 % 1027,5 hPa 0,0 l/m NO 1,00 h 416 W/m 8,3 km/h (2 Bft)
25.03.2012 11:00 12,1 C 70 % 1027,8 hPa 0,0 l/m NO 1,00 h 551 W/m 12,0 km/h (2 Bft)
25.03.2012 12:00 14,4 C 59 % 1027,6 hPa 0,0 l/m O-NO 1,00 h 651 W/m 15,3 km/h (3 Bft)
25.03.2012 13:00 15,6 C 54 % 1027,4 hPa 0,0 l/m O-SO 1,00 h 696 W/m 18,6 km/h (3 Bft)
25.03.2012 14:00 16,7 C 50 % 1027,0 hPa 0,0 l/m NO 1,00 h 708 W/m 18,8 km/h (3 Bft)
25.03.2012 15:00 16,7 C 47 % 1026,8 hPa 0,0 l/m O-SO 0,75 h 518 W/m 18,4 km/h (3 Bft)
25.03.2012 16:00 16,8 C 45 % 1026,8 hPa 0,0 l/m NO 0,75 h 393 W/m 18,2 km/h (3 Bft)
25.03.2012 17:00 16,4 C 45 % 1027,0 hPa 0,0 l/m NO 0,67 h 272 W/m 15,7 km/h (3 Bft)
25.03.2012 18:00 15,8 C 49 % 1027,0 hPa 0,0 l/m NO 0,67 h 119 W/m 13,0 km/h (3 Bft)
25.03.2012 19:00 14,1 C 55 % 1027,4 hPa 0,0 l/m O-NO 0,08 h 16 W/m 4,8 km/h (1 Bft)
25.03.2012 20:00 10,9 C 67 % 1027,9 hPa 0,0 l/m N 0,00 h 0 W/m 0,5 km/h (0 Bft)
25.03.2012 21:00 9,5 C 72 % 1028,4 hPa 0,0 l/m O-NO 0,00 h 0 W/m 1,9 km/h (1 Bft)
25.03.2012 22:00 8,8 C 74 % 1028,7 hPa 0,0 l/m N-NW 0,00 h 0 W/m 5,3 km/h (1 Bft)
25.03.2012 23:00 7,5 C 78 % 1028,8 hPa 0,0 l/m N 0,00 h 0 W/m 2,1 km/h (1 Bft)
Min-Datum _ 20.03.12 23.03.12 19.03.12 - - - - 19.03.12
_ Min-Zeit 06:50 16:10 00:00 - - - - 00:20
Minimum _ 1,3 C 39 % 1021,4 hPa - - - - 0,0 km/h (0 Bft)
Max-Datum _ 23.03.12 23.03.12 21.03.12 19.03.12 - 20.03.12 20.03.12 24.03.12
_ Max-Zeit 15:10 08:00 08:35 04:00 - 08:05 13:00 16:10
Maximum _ 17,8 C 100 % 1033,8 hPa 1,6 l/m - 0,08 h 809 W/m 29,0 km/h
N-NO (5 Bft)
Durchschnitt _ 8,1 C 76 % 1027,4 hPa #8,0 l/m NO #56:10 h 321 W/m 7,0 km/h (2 Bft)